createdAt,value
2024-01-24T00:00:14.080Z,548.00
2024-01-24T00:01:14.092Z,550.00
2024-01-24T00:02:14.050Z,548.00
2024-01-24T00:03:14.195Z,545.00
2024-01-24T00:04:14.239Z,542.00
2024-01-24T00:05:14.173Z,541.00
2024-01-24T00:06:14.283Z,538.00
2024-01-24T00:07:14.208Z,538.00
2024-01-24T00:08:14.214Z,535.00
2024-01-24T00:09:14.280Z,534.00
2024-01-24T00:10:14.256Z,535.00
2024-01-24T00:11:14.325Z,536.00
2024-01-24T00:12:14.413Z,535.00
2024-01-24T00:13:14.383Z,538.00
2024-01-24T00:14:14.377Z,542.00
2024-01-24T00:15:14.463Z,543.00
2024-01-24T00:16:14.472Z,544.00
2024-01-24T00:17:14.483Z,544.00
2024-01-24T00:18:14.694Z,543.00
2024-01-24T00:19:14.594Z,548.00
2024-01-24T00:20:14.579Z,547.00
2024-01-24T00:21:14.617Z,547.00
2024-01-24T00:22:14.617Z,546.00
2024-01-24T00:23:14.650Z,546.00
2024-01-24T00:24:14.694Z,547.00
2024-01-24T00:25:14.662Z,545.00
2024-01-24T00:26:14.698Z,546.00
2024-01-24T00:27:14.743Z,543.00
2024-01-24T00:28:14.730Z,543.00
2024-01-24T00:29:14.752Z,538.00
2024-01-24T00:30:14.864Z,540.00
2024-01-24T00:31:14.850Z,538.00
2024-01-24T00:32:14.877Z,538.00
2024-01-24T00:33:14.929Z,537.00
2024-01-24T00:34:15.057Z,539.00
2024-01-24T00:35:14.917Z,538.00
2024-01-24T00:36:14.921Z,539.00
2024-01-24T00:37:14.993Z,539.00
2024-01-24T00:38:15.045Z,540.00
2024-01-24T00:39:15.118Z,542.00
2024-01-24T00:40:15.103Z,543.00
2024-01-24T00:41:15.161Z,543.00
2024-01-24T00:42:15.221Z,542.00
2024-01-24T00:43:16.150Z,543.00
2024-01-24T00:44:15.337Z,541.00
2024-01-24T00:45:15.482Z,542.00
2024-01-24T00:46:15.565Z,543.00
2024-01-24T00:47:15.626Z,543.00
2024-01-24T00:48:15.780Z,545.00
2024-01-24T00:49:15.690Z,546.00
2024-01-24T00:50:15.696Z,546.00
2024-01-24T00:51:15.652Z,544.00
2024-01-24T00:52:15.646Z,543.00
2024-01-24T00:53:15.652Z,544.00
2024-01-24T00:54:15.733Z,544.00
2024-01-24T00:55:15.678Z,541.00
2024-01-24T00:56:15.713Z,542.00
2024-01-24T00:57:15.768Z,540.00
2024-01-24T00:58:15.746Z,540.00
2024-01-24T00:59:15.798Z,537.00
2024-01-24T01:00:15.860Z,540.00
2024-01-24T01:01:15.961Z,540.00
2024-01-24T01:02:15.926Z,540.00
2024-01-24T01:03:16.068Z,541.00
2024-01-24T01:04:16.043Z,542.00
2024-01-24T01:05:16.055Z,542.00
2024-01-24T01:06:16.116Z,543.00
2024-01-24T01:07:16.162Z,542.00
2024-01-24T01:08:16.175Z,541.00
2024-01-24T01:09:16.270Z,538.00
2024-01-24T01:10:16.224Z,536.00
2024-01-24T01:11:16.301Z,533.00
2024-01-24T01:12:16.400Z,534.00
2024-01-24T01:13:16.392Z,534.00
2024-01-24T01:14:16.458Z,532.00
2024-01-24T01:15:16.542Z,533.00
2024-01-24T01:16:16.567Z,531.00
2024-01-24T01:17:16.672Z,530.00
2024-01-24T01:18:16.741Z,530.00
2024-01-24T01:19:16.874Z,529.00
2024-01-24T01:20:16.849Z,529.00
2024-01-24T01:21:16.975Z,528.00
2024-01-24T01:22:16.973Z,528.00
2024-01-24T01:23:16.997Z,527.00
2024-01-24T01:24:17.157Z,526.00
2024-01-24T01:25:17.139Z,524.00
2024-01-24T01:26:17.162Z,526.00
2024-01-24T01:27:17.300Z,527.00
2024-01-24T01:28:17.250Z,528.00
2024-01-24T01:29:17.285Z,529.00
2024-01-24T01:30:17.390Z,529.00
2024-01-24T01:31:17.448Z,530.00
2024-01-24T01:32:17.514Z,532.00
2024-01-24T01:33:17.695Z,531.00
2024-01-24T01:34:17.678Z,532.00
2024-01-24T01:35:17.666Z,531.00
2024-01-24T01:36:22.972Z,534.00
2024-01-24T01:37:18.737Z,534.00
2024-01-24T01:38:17.728Z,534.00
2024-01-24T01:39:17.749Z,535.00
2024-01-24T01:40:17.698Z,533.00
2024-01-24T01:41:17.759Z,534.00
2024-01-24T01:42:17.736Z,531.00
2024-01-24T01:43:17.730Z,530.00
2024-01-24T01:44:17.745Z,529.00
2024-01-24T01:45:17.812Z,528.00
2024-01-24T01:46:17.745Z,531.00
2024-01-24T01:47:17.747Z,532.00
2024-01-24T01:48:17.871Z,534.00
2024-01-24T01:49:17.817Z,534.00
2024-01-24T01:50:17.758Z,532.00
2024-01-24T01:51:17.751Z,530.00
2024-01-24T01:52:17.809Z,530.00
2024-01-24T01:53:17.833Z,531.00
2024-01-24T01:54:17.937Z,531.00
2024-01-24T01:55:17.942Z,530.00
2024-01-24T01:56:18.015Z,531.00
2024-01-24T01:57:18.142Z,532.00
2024-01-24T01:58:18.108Z,537.00
2024-01-24T01:59:18.166Z,535.00
2024-01-24T02:00:18.251Z,538.00
2024-01-24T02:01:18.405Z,539.00
2024-01-24T02:02:18.336Z,539.00
2024-01-24T02:03:18.444Z,539.00
2024-01-24T02:04:18.491Z,538.00
2024-01-24T02:05:18.498Z,536.00
2024-01-24T02:06:18.676Z,533.00
2024-01-24T02:07:18.635Z,530.00
2024-01-24T02:08:18.588Z,528.00
2024-01-24T02:09:18.632Z,529.00
2024-01-24T02:10:18.666Z,528.00
2024-01-24T02:11:18.749Z,526.00
2024-01-24T02:12:18.800Z,531.00
2024-01-24T02:13:18.813Z,529.00
2024-01-24T02:14:18.876Z,529.00
2024-01-24T02:15:18.951Z,529.00
2024-01-24T02:16:21.275Z,528.00
2024-01-24T02:17:19.163Z,529.00
2024-01-24T02:18:19.221Z,529.00
2024-01-24T02:19:19.263Z,530.00
2024-01-24T02:20:19.296Z,532.00
2024-01-24T02:21:19.342Z,531.00
2024-01-24T02:22:19.433Z,532.00
2024-01-24T02:23:19.456Z,532.00
2024-01-24T02:24:19.522Z,533.00
2024-01-24T02:25:19.561Z,531.00
2024-01-24T02:26:19.579Z,531.00
2024-01-24T02:27:19.649Z,528.00
2024-01-24T02:28:19.681Z,530.00
2024-01-24T02:29:19.725Z,528.00
2024-01-24T02:30:19.767Z,529.00
2024-01-24T02:31:19.818Z,530.00
2024-01-24T02:32:19.855Z,529.00
2024-01-24T02:33:20.015Z,531.00
2024-01-24T02:34:20.025Z,531.00
2024-01-24T02:35:19.993Z,530.00
2024-01-24T02:36:20.060Z,531.00
2024-01-24T02:37:20.092Z,529.00
2024-01-24T02:38:20.129Z,530.00
2024-01-24T02:39:20.247Z,531.00
2024-01-24T02:40:20.211Z,530.00
2024-01-24T02:41:20.270Z,532.00
2024-01-24T02:42:20.334Z,533.00
2024-01-24T02:43:20.334Z,536.00
2024-01-24T02:44:20.407Z,534.00
2024-01-24T02:45:20.445Z,535.00
2024-01-24T02:46:20.470Z,532.00
2024-01-24T02:47:20.484Z,533.00
2024-01-24T02:48:20.633Z,534.00
2024-01-24T02:49:20.632Z,536.00
2024-01-24T02:50:20.641Z,536.00
2024-01-24T02:51:20.663Z,535.00
2024-01-24T02:52:20.695Z,536.00
2024-01-24T02:53:20.735Z,536.00
2024-01-24T02:54:20.795Z,533.00
2024-01-24T02:55:20.824Z,532.00
2024-01-24T02:56:20.867Z,529.00
2024-01-24T02:57:20.910Z,531.00
2024-01-24T02:58:20.942Z,531.00
2024-01-24T02:59:20.976Z,532.00
2024-01-24T03:00:21.035Z,533.00
2024-01-24T03:01:21.168Z,532.00
2024-01-24T03:02:21.084Z,534.00
2024-01-24T03:03:21.183Z,536.00
2024-01-24T03:04:21.372Z,536.00
2024-01-24T03:05:21.196Z,534.00
2024-01-24T03:06:21.334Z,535.00
2024-01-24T03:07:21.299Z,534.00
2024-01-24T03:08:21.325Z,533.00
2024-01-24T03:09:21.361Z,535.00
2024-01-24T03:10:21.362Z,537.00
2024-01-24T03:11:21.435Z,535.00
2024-01-24T03:12:21.489Z,533.00
2024-01-24T03:13:21.558Z,532.00
2024-01-24T03:14:21.543Z,534.00
2024-01-24T03:15:21.604Z,535.00
2024-01-24T03:16:21.618Z,534.00
2024-01-24T03:17:21.651Z,535.00
2024-01-24T03:18:21.827Z,533.00
2024-01-24T03:19:21.838Z,532.00
2024-01-24T03:20:21.769Z,531.00
2024-01-24T03:21:21.829Z,531.00
2024-01-24T03:22:21.823Z,531.00
2024-01-24T03:23:21.875Z,533.00
2024-01-24T03:24:21.913Z,533.00
2024-01-24T03:25:21.936Z,536.00
2024-01-24T03:26:21.949Z,537.00
2024-01-24T03:27:21.987Z,535.00
2024-01-24T03:28:22.037Z,536.00
2024-01-24T03:29:22.068Z,533.00
2024-01-24T03:30:22.098Z,535.00
2024-01-24T03:31:22.095Z,535.00
2024-01-24T03:32:22.127Z,532.00
2024-01-24T03:33:22.196Z,529.00
2024-01-24T03:34:22.232Z,531.00
2024-01-24T03:35:22.200Z,531.00
2024-01-24T03:36:22.265Z,530.00
2024-01-24T03:37:22.233Z,530.00
2024-01-24T03:38:22.285Z,528.00
2024-01-24T03:39:22.336Z,528.00
2024-01-24T03:40:22.354Z,529.00
2024-01-24T03:41:22.347Z,525.00
2024-01-24T03:42:22.446Z,527.00
2024-01-24T03:43:22.485Z,527.00
2024-01-24T03:44:22.448Z,526.00
2024-01-24T03:45:22.576Z,524.00
2024-01-24T03:46:22.510Z,524.00
2024-01-24T03:47:22.507Z,525.00
2024-01-24T03:48:22.626Z,526.00
2024-01-24T03:49:22.951Z,525.00
2024-01-24T03:50:22.587Z,524.00
2024-01-24T03:51:22.736Z,526.00
2024-01-24T03:52:22.722Z,525.00
2024-01-24T03:53:22.733Z,527.00
2024-01-24T03:54:22.744Z,526.00
2024-01-24T03:55:22.770Z,531.00
2024-01-24T03:56:22.780Z,533.00
2024-01-24T03:57:22.839Z,534.00
2024-01-24T03:58:22.831Z,533.00
2024-01-24T03:59:22.858Z,535.00
2024-01-24T04:00:22.920Z,536.00
2024-01-24T04:01:23.030Z,536.00
2024-01-24T04:02:22.952Z,534.00
2024-01-24T04:03:23.071Z,533.00
2024-01-24T04:04:23.179Z,533.00
2024-01-24T04:05:23.013Z,530.00
2024-01-24T04:06:23.110Z,526.00
2024-01-24T04:07:23.082Z,527.00
2024-01-24T04:08:23.032Z,527.00
2024-01-24T04:09:23.125Z,528.00
2024-01-24T04:10:23.079Z,526.00
2024-01-24T04:11:23.128Z,526.00
2024-01-24T04:12:23.213Z,525.00
2024-01-24T04:13:23.178Z,525.00
2024-01-24T04:14:23.180Z,525.00
2024-01-24T04:15:23.345Z,527.00
2024-01-24T04:16:23.225Z,529.00
2024-01-24T04:17:23.271Z,529.00
2024-01-24T04:18:23.342Z,525.00
2024-01-24T04:19:23.381Z,525.00
2024-01-24T04:20:23.380Z,525.00
2024-01-24T04:21:23.367Z,526.00
2024-01-24T04:22:23.373Z,527.00
2024-01-24T04:23:23.508Z,525.00
2024-01-24T04:24:23.543Z,523.00
2024-01-24T04:25:23.415Z,524.00
2024-01-24T04:26:23.552Z,524.00
2024-01-24T04:27:23.586Z,525.00
2024-01-24T04:28:23.546Z,528.00
2024-01-24T04:29:23.585Z,531.00
2024-01-24T04:30:24.260Z,530.00
2024-01-24T04:31:23.657Z,528.00
2024-01-24T04:32:23.632Z,526.00
2024-01-24T04:33:23.716Z,526.00
2024-01-24T04:34:31.103Z,530.00
2024-01-24T04:35:30.998Z,529.00
2024-01-24T04:36:31.034Z,526.00
2024-01-24T04:37:31.032Z,522.00
2024-01-24T04:38:31.018Z,520.00
2024-01-24T04:39:31.049Z,521.00
2024-01-24T04:40:31.038Z,520.00
2024-01-24T04:41:31.052Z,519.00
2024-01-24T04:42:31.016Z,520.00
2024-01-24T04:43:31.030Z,521.00
2024-01-24T04:44:31.028Z,523.00
2024-01-24T04:45:31.054Z,520.00
2024-01-24T04:46:31.013Z,522.00
2024-01-24T04:47:31.044Z,520.00
2024-01-24T04:48:31.099Z,519.00
2024-01-24T04:49:40.246Z,518.00
2024-01-24T04:50:32.162Z,519.00
2024-01-24T04:51:31.093Z,518.00
2024-01-24T04:52:31.037Z,520.00
2024-01-24T04:53:31.081Z,520.00
2024-01-24T04:54:31.040Z,521.00
2024-01-24T04:55:31.043Z,521.00
2024-01-24T04:56:31.044Z,522.00
2024-01-24T04:57:31.093Z,524.00
2024-01-24T04:58:31.059Z,524.00
2024-01-24T04:59:32.093Z,525.00
2024-01-24T05:00:31.079Z,526.00
2024-01-24T05:01:31.124Z,526.00
2024-01-24T05:02:31.076Z,527.00
2024-01-24T05:03:31.102Z,525.00
2024-01-24T05:04:31.118Z,524.00
2024-01-24T05:05:31.071Z,522.00
2024-01-24T05:06:31.079Z,520.00
2024-01-24T05:07:31.043Z,519.00
2024-01-24T05:08:31.054Z,521.00
2024-01-24T05:09:31.095Z,524.00
2024-01-24T05:10:31.032Z,524.00
2024-01-24T05:11:31.046Z,523.00
2024-01-24T05:12:31.062Z,525.00
2024-01-24T05:13:31.048Z,526.00
2024-01-24T05:14:31.029Z,526.00
2024-01-24T05:15:31.057Z,525.00
2024-01-24T05:16:31.070Z,525.00
2024-01-24T05:17:31.046Z,524.00
2024-01-24T05:18:31.144Z,523.00
2024-01-24T05:19:31.092Z,526.00
2024-01-24T05:20:31.039Z,523.00
2024-01-24T05:21:31.055Z,524.00
2024-01-24T05:22:31.062Z,521.00
2024-01-24T05:23:31.043Z,521.00
2024-01-24T05:24:31.086Z,523.00
2024-01-24T05:25:31.060Z,524.00
2024-01-24T05:26:31.066Z,527.00
2024-01-24T05:27:31.109Z,528.00
2024-01-24T05:28:31.058Z,530.00
2024-01-24T05:29:31.059Z,531.00
2024-01-24T05:30:35.775Z,530.00
2024-01-24T05:31:32.117Z,532.00
2024-01-24T05:32:31.112Z,531.00
2024-01-24T05:33:31.273Z,531.00
2024-01-24T05:34:31.236Z,530.00
2024-01-24T05:35:31.101Z,528.00
2024-01-24T05:36:31.140Z,527.00
2024-01-24T05:37:31.105Z,527.00
2024-01-24T05:38:31.067Z,529.00
2024-01-24T05:39:31.133Z,527.00
2024-01-24T05:40:31.066Z,527.00
2024-01-24T05:41:31.055Z,527.00
2024-01-24T05:42:31.086Z,528.00
2024-01-24T05:43:31.096Z,528.00
2024-01-24T05:44:31.075Z,530.00
2024-01-24T05:45:31.120Z,532.00
2024-01-24T05:46:31.073Z,531.00
2024-01-24T05:47:31.189Z,530.00
2024-01-24T05:48:31.259Z,532.00
2024-01-24T05:49:31.369Z,533.00
2024-01-24T05:50:31.187Z,533.00
2024-01-24T05:51:31.299Z,529.00
2024-01-24T05:52:31.317Z,526.00
2024-01-24T05:53:31.319Z,524.00
2024-01-24T05:54:31.415Z,522.00
2024-01-24T05:55:31.421Z,522.00
2024-01-24T05:56:31.459Z,523.00
2024-01-24T05:57:31.493Z,523.00
2024-01-24T05:58:31.546Z,526.00
2024-01-24T05:59:31.615Z,525.00
2024-01-24T06:01:54.227Z,520.00
2024-01-24T06:02:31.639Z,525.00
2024-01-24T06:03:31.715Z,526.00
2024-01-24T06:04:31.754Z,526.00
2024-01-24T06:05:31.739Z,526.00
2024-01-24T06:06:31.701Z,529.00
2024-01-24T06:07:31.700Z,529.00
2024-01-24T06:08:31.649Z,532.00
2024-01-24T06:09:31.702Z,532.00
2024-01-24T06:10:31.635Z,531.00
2024-01-24T06:11:31.612Z,532.00
2024-01-24T06:12:31.667Z,534.00
2024-01-24T06:13:31.655Z,534.00
2024-01-24T06:14:31.654Z,532.00
2024-01-24T06:15:31.661Z,532.00
2024-01-24T06:16:31.660Z,532.00
2024-01-24T06:17:34.008Z,531.00
2024-01-24T06:18:31.688Z,532.00
2024-01-24T06:19:31.696Z,534.00
2024-01-24T06:20:31.617Z,536.00
2024-01-24T06:21:31.636Z,536.00
2024-01-24T06:22:31.644Z,536.00
2024-01-24T06:23:31.685Z,534.00
2024-01-24T06:24:31.693Z,537.00
2024-01-24T06:25:31.677Z,537.00
2024-01-24T06:26:31.673Z,536.00
2024-01-24T06:27:31.691Z,536.00
2024-01-24T06:28:31.653Z,538.00
2024-01-24T06:30:15.618Z,541.00
2024-01-24T06:30:32.696Z,541.00
2024-01-24T06:31:31.655Z,538.00
2024-01-24T06:32:31.719Z,537.00
2024-01-24T06:33:31.728Z,536.00
2024-01-24T06:34:31.714Z,533.00
2024-01-24T06:35:31.684Z,533.00
2024-01-24T06:36:31.745Z,536.00
2024-01-24T06:37:31.676Z,536.00
2024-01-24T06:38:31.659Z,538.00
2024-01-24T06:39:31.709Z,540.00
2024-01-24T06:40:31.676Z,541.00
2024-01-24T06:41:31.677Z,544.00
2024-01-24T06:42:31.726Z,545.00
2024-01-24T06:43:31.742Z,545.00
2024-01-24T06:44:31.746Z,544.00
2024-01-24T06:45:31.878Z,543.00
2024-01-24T06:46:54.350Z,541.00
2024-01-24T06:47:31.850Z,543.00
2024-01-24T06:48:32.308Z,545.00
2024-01-24T06:49:32.161Z,547.00
2024-01-24T06:50:31.860Z,546.00
2024-01-24T06:51:31.900Z,548.00
2024-01-24T06:52:31.882Z,548.00
2024-01-24T06:53:31.901Z,551.00
2024-01-24T06:54:31.895Z,550.00
2024-01-24T06:55:31.849Z,551.00
2024-01-24T06:56:31.857Z,552.00
2024-01-24T06:57:31.867Z,553.00
2024-01-24T06:58:31.912Z,556.00
2024-01-24T06:59:31.901Z,558.00
2024-01-24T07:00:31.894Z,561.00
2024-01-24T07:01:31.983Z,558.00
2024-01-24T07:02:31.912Z,557.00
2024-01-24T07:03:32.023Z,558.00
2024-01-24T07:04:31.933Z,560.00
2024-01-24T07:05:31.887Z,559.00
2024-01-24T07:06:31.992Z,561.00
2024-01-24T07:07:31.985Z,561.00
2024-01-24T07:08:32.095Z,562.00
2024-01-24T07:09:32.126Z,564.00
2024-01-24T07:10:32.150Z,565.00
2024-01-24T07:11:32.224Z,566.00
2024-01-24T07:12:32.259Z,567.00
2024-01-24T07:13:32.286Z,565.00
2024-01-24T07:14:32.344Z,565.00
2024-01-24T07:15:32.371Z,567.00
2024-01-24T07:16:32.436Z,568.00
2024-01-24T07:17:32.507Z,571.00
2024-01-24T07:18:32.684Z,570.00
2024-01-24T07:19:32.652Z,570.00
2024-01-24T07:20:32.641Z,572.00
2024-01-24T07:21:32.719Z,571.00
2024-01-24T07:22:32.852Z,572.00
2024-01-24T07:23:32.780Z,576.00
2024-01-24T07:24:32.868Z,576.00
2024-01-24T07:25:32.840Z,579.00
2024-01-24T07:26:32.941Z,578.00
2024-01-24T07:27:35.101Z,577.00
2024-01-24T07:28:33.010Z,575.00
2024-01-24T07:29:33.044Z,576.00
2024-01-24T07:30:32.991Z,579.00
2024-01-24T07:31:32.996Z,581.00
2024-01-24T07:32:33.065Z,585.00
2024-01-24T07:33:33.062Z,584.00
2024-01-24T07:34:33.110Z,584.00
2024-01-24T07:35:33.008Z,584.00
2024-01-24T07:36:33.029Z,583.00
2024-01-24T07:37:33.017Z,585.00
2024-01-24T07:38:33.035Z,585.00
2024-01-24T07:39:33.035Z,585.00
2024-01-24T07:40:32.986Z,588.00
2024-01-24T07:41:32.994Z,590.00
2024-01-24T07:42:33.061Z,590.00
2024-01-24T07:43:33.330Z,591.00
2024-01-24T07:44:33.484Z,592.00
2024-01-24T07:45:33.032Z,591.00
2024-01-24T07:46:34.008Z,595.00
2024-01-24T07:47:33.027Z,594.00
2024-01-24T07:48:33.136Z,596.00
2024-01-24T07:49:34.134Z,593.00
2024-01-24T07:50:33.035Z,594.00
2024-01-24T07:51:33.026Z,594.00
2024-01-24T07:52:40.601Z,594.00
2024-01-24T07:53:34.410Z,594.00
2024-01-24T07:54:33.107Z,593.00
2024-01-24T07:55:41.621Z,591.00
2024-01-24T07:56:34.775Z,593.00
2024-01-24T07:57:33.037Z,594.00
2024-01-24T07:58:33.201Z,595.00
2024-01-24T07:59:33.021Z,599.00
2024-01-24T08:00:33.111Z,600.00
2024-01-24T08:01:33.133Z,599.00
2024-01-24T08:02:33.055Z,602.00
2024-01-24T08:03:33.092Z,605.00
2024-01-24T08:04:33.060Z,607.00
2024-01-24T08:05:33.069Z,609.00
2024-01-24T08:06:33.185Z,608.00
2024-01-24T08:07:32.996Z,611.00
2024-01-24T08:08:33.023Z,612.00
2024-01-24T08:09:33.076Z,612.00
2024-01-24T08:10:33.100Z,615.00
2024-01-24T08:11:33.135Z,616.00
2024-01-24T08:12:33.266Z,616.00
2024-01-24T08:13:33.224Z,616.00
2024-01-24T08:14:33.224Z,618.00
2024-01-24T08:15:33.286Z,619.00
2024-01-24T08:16:33.270Z,621.00
2024-01-24T08:17:33.388Z,624.00
2024-01-24T08:18:33.460Z,626.00
2024-01-24T08:19:33.533Z,628.00
2024-01-24T08:20:33.463Z,627.00
2024-01-24T08:21:33.615Z,629.00
2024-01-24T08:22:33.526Z,630.00
2024-01-24T08:23:42.221Z,630.00
2024-01-24T08:24:34.598Z,630.00
2024-01-24T08:25:33.566Z,628.00
2024-01-24T08:26:33.617Z,628.00
2024-01-24T08:27:33.670Z,629.00
2024-01-24T08:28:33.560Z,630.00
2024-01-24T08:29:37.605Z,629.00
2024-01-24T08:30:33.612Z,629.00
2024-01-24T08:31:33.543Z,631.00
2024-01-24T08:32:33.679Z,633.00
2024-01-24T08:33:33.717Z,632.00
2024-01-24T08:34:33.603Z,632.00
2024-01-24T08:35:33.617Z,630.00
2024-01-24T08:36:33.570Z,630.00
2024-01-24T08:37:33.593Z,630.00
2024-01-24T08:38:33.621Z,626.00
2024-01-24T08:39:33.632Z,628.00
2024-01-24T08:40:33.566Z,629.00
2024-01-24T08:41:33.708Z,630.00
2024-01-24T08:42:33.600Z,630.00
2024-01-24T08:43:33.556Z,629.00
2024-01-24T08:44:33.588Z,633.00
2024-01-24T08:45:33.669Z,635.00
2024-01-24T08:46:33.617Z,640.00
2024-01-24T08:47:33.661Z,642.00
2024-01-24T08:48:33.753Z,640.00
2024-01-24T08:49:33.845Z,641.00
2024-01-24T08:50:33.707Z,640.00
2024-01-24T08:51:33.807Z,641.00
2024-01-24T08:52:33.801Z,642.00
2024-01-24T08:53:33.844Z,642.00
2024-01-24T08:54:34.979Z,647.00
2024-01-24T08:55:34.013Z,646.00
2024-01-24T08:56:34.017Z,649.00
2024-01-24T08:57:34.105Z,648.00
2024-01-24T08:58:34.085Z,650.00
2024-01-24T08:59:34.157Z,653.00
2024-01-24T09:00:34.223Z,656.00
2024-01-24T09:01:34.330Z,656.00
2024-01-24T09:02:34.325Z,656.00
2024-01-24T09:03:34.421Z,658.00
2024-01-24T09:04:34.537Z,661.00
2024-01-24T09:05:34.426Z,664.00
2024-01-24T09:06:34.456Z,665.00
2024-01-24T09:07:34.462Z,666.00
2024-01-24T09:08:34.546Z,668.00
2024-01-24T09:09:34.812Z,669.00
2024-01-24T09:10:34.643Z,670.00
2024-01-24T09:11:38.581Z,669.00
2024-01-24T09:12:35.683Z,667.00
2024-01-24T09:13:34.651Z,671.00
2024-01-24T09:14:34.667Z,671.00
2024-01-24T09:15:35.861Z,674.00
2024-01-24T09:16:34.656Z,674.00
2024-01-24T09:17:34.656Z,670.00
2024-01-24T09:18:34.989Z,673.00
2024-01-24T09:19:34.772Z,672.00
2024-01-24T09:20:34.685Z,671.00
2024-01-24T09:21:34.678Z,672.00
2024-01-24T09:22:34.724Z,672.00
2024-01-24T09:23:34.713Z,669.00
2024-01-24T09:24:34.688Z,668.00
2024-01-24T09:25:34.668Z,668.00
2024-01-24T09:26:34.710Z,673.00
2024-01-24T09:27:34.790Z,673.00
2024-01-24T09:28:34.690Z,675.00
2024-01-24T09:29:34.755Z,674.00
2024-01-24T09:30:34.776Z,674.00
2024-01-24T09:31:34.827Z,673.00
2024-01-24T09:32:34.990Z,672.00
2024-01-24T09:33:36.902Z,672.00
2024-01-24T09:34:35.079Z,670.00
2024-01-24T09:35:35.063Z,666.00
2024-01-24T09:36:34.937Z,669.00
2024-01-24T09:37:34.921Z,672.00
2024-01-24T09:38:34.871Z,673.00
2024-01-24T09:39:35.333Z,672.00
2024-01-24T09:40:35.007Z,670.00
2024-01-24T09:41:34.891Z,671.00
2024-01-24T09:42:34.934Z,674.00
2024-01-24T09:43:34.906Z,674.00
2024-01-24T09:44:34.917Z,675.00
2024-01-24T09:45:34.973Z,677.00
2024-01-24T09:46:34.898Z,679.00
2024-01-24T09:47:34.933Z,679.00
2024-01-24T09:48:34.919Z,680.00
2024-01-24T09:49:35.077Z,678.00
2024-01-24T09:50:34.915Z,678.00
2024-01-24T09:51:34.941Z,681.00
2024-01-24T09:52:34.977Z,681.00
2024-01-24T09:53:34.905Z,680.00
2024-01-24T09:54:34.957Z,676.00
2024-01-24T09:55:34.926Z,678.00
2024-01-24T09:56:35.009Z,679.00
2024-01-24T09:57:35.061Z,676.00
2024-01-24T09:58:34.911Z,676.00
2024-01-24T09:59:35.324Z,676.00
2024-01-24T10:00:35.017Z,675.00
2024-01-24T10:01:34.993Z,673.00
2024-01-24T10:02:34.926Z,669.00
2024-01-24T10:03:37.774Z,669.00
2024-01-24T10:04:35.001Z,669.00
2024-01-24T10:05:34.950Z,666.00
2024-01-24T10:06:35.011Z,666.00
2024-01-24T10:07:34.975Z,666.00
2024-01-24T10:08:34.951Z,666.00
2024-01-24T10:09:35.402Z,666.00
2024-01-24T10:10:34.914Z,669.00
2024-01-24T10:11:34.925Z,665.00
2024-01-24T10:12:34.961Z,664.00
2024-01-24T10:13:34.939Z,666.00
2024-01-24T10:14:34.952Z,667.00
2024-01-24T10:15:34.963Z,666.00
2024-01-24T10:16:34.965Z,665.00
2024-01-24T10:17:35.041Z,662.00
2024-01-24T10:18:35.058Z,662.00
2024-01-24T10:19:35.030Z,664.00
2024-01-24T10:20:34.954Z,665.00
2024-01-24T10:21:34.975Z,663.00
2024-01-24T10:22:34.975Z,664.00
2024-01-24T10:23:35.308Z,667.00
2024-01-24T10:24:34.998Z,666.00
2024-01-24T10:25:34.971Z,666.00
2024-01-24T10:26:35.005Z,665.00
2024-01-24T10:27:35.011Z,661.00
2024-01-24T10:28:34.979Z,660.00
2024-01-24T10:29:35.381Z,658.00
2024-01-24T10:30:35.001Z,659.00
2024-01-24T10:31:34.991Z,658.00
2024-01-24T10:32:34.984Z,658.00
2024-01-24T10:33:35.065Z,658.00
2024-01-24T10:34:35.128Z,657.00
2024-01-24T10:35:34.993Z,660.00
2024-01-24T10:36:35.258Z,663.00
2024-01-24T10:37:35.476Z,665.00
2024-01-24T10:38:34.955Z,666.00
2024-01-24T10:39:35.047Z,667.00
2024-01-24T10:40:35.044Z,668.00
2024-01-24T10:41:34.988Z,669.00
2024-01-24T10:42:34.965Z,668.00
2024-01-24T10:43:34.946Z,671.00
2024-01-24T10:44:34.980Z,669.00
2024-01-24T10:45:35.416Z,669.00
2024-01-24T10:46:35.003Z,666.00
2024-01-24T10:47:35.026Z,665.00
2024-01-24T10:48:35.213Z,665.00
2024-01-24T10:49:35.035Z,663.00
2024-01-24T10:50:35.336Z,659.00
2024-01-24T10:51:35.290Z,662.00
2024-01-24T10:52:35.996Z,664.00
2024-01-24T10:53:35.020Z,667.00
2024-01-24T10:54:35.035Z,669.00
2024-01-24T10:55:35.351Z,667.00
2024-01-24T10:56:35.089Z,665.00
2024-01-24T10:57:35.016Z,664.00
2024-01-24T10:58:34.983Z,665.00
2024-01-24T10:59:35.001Z,665.00
2024-01-24T11:00:35.082Z,661.00
2024-01-24T11:01:35.073Z,658.00
2024-01-24T11:02:35.057Z,657.00
2024-01-24T11:03:35.118Z,658.00
2024-01-24T11:04:35.073Z,656.00
2024-01-24T11:05:35.070Z,659.00
2024-01-24T11:06:35.111Z,661.00
2024-01-24T11:07:34.995Z,660.00
2024-01-24T11:08:40.521Z,659.00
2024-01-24T11:09:36.092Z,658.00
2024-01-24T11:10:35.027Z,657.00
2024-01-24T11:11:35.019Z,656.00
2024-01-24T11:12:35.034Z,658.00
2024-01-24T11:13:35.011Z,661.00
2024-01-24T11:14:35.235Z,663.00
2024-01-24T11:15:35.070Z,665.00
2024-01-24T11:16:35.008Z,666.00
2024-01-24T11:17:35.055Z,663.00
2024-01-24T11:18:35.188Z,664.00
2024-01-24T11:19:35.327Z,664.00
2024-01-24T11:20:35.039Z,666.00
2024-01-24T11:21:36.743Z,672.00
2024-01-24T11:22:35.076Z,672.00
2024-01-24T11:23:35.008Z,672.00
2024-01-24T11:24:35.054Z,669.00
2024-01-24T11:25:35.040Z,665.00
2024-01-24T11:26:35.044Z,664.00
2024-01-24T11:27:35.932Z,664.00
2024-01-24T11:28:35.099Z,660.00
2024-01-24T11:29:35.160Z,658.00
2024-01-24T11:30:35.217Z,654.00
2024-01-24T11:31:35.217Z,652.00
2024-01-24T11:32:35.308Z,650.00
2024-01-24T11:33:35.468Z,648.00
2024-01-24T11:34:35.474Z,650.00
2024-01-24T11:35:35.515Z,648.00
2024-01-24T11:36:35.398Z,650.00
2024-01-24T11:37:35.425Z,649.00
2024-01-24T11:38:35.449Z,647.00
2024-01-24T11:39:35.614Z,647.00
2024-01-24T11:40:35.880Z,644.00
2024-01-24T11:41:35.573Z,647.00
2024-01-24T11:42:35.662Z,652.00
2024-01-24T11:43:38.305Z,656.00
2024-01-24T11:44:35.614Z,653.00
2024-01-24T11:45:35.972Z,652.00
2024-01-24T11:46:35.631Z,652.00
2024-01-24T11:47:35.657Z,652.00
2024-01-24T11:48:35.798Z,651.00
2024-01-24T11:49:35.701Z,650.00
2024-01-24T11:50:36.272Z,652.00
2024-01-24T11:51:35.694Z,652.00
2024-01-24T11:52:35.637Z,648.00
2024-01-24T11:53:35.624Z,649.00
2024-01-24T11:54:35.711Z,650.00
2024-01-24T11:55:35.859Z,652.00
2024-01-24T11:56:35.683Z,655.00
2024-01-24T11:57:35.688Z,656.00
2024-01-24T11:58:35.600Z,657.00
2024-01-24T11:59:35.632Z,655.00
2024-01-24T12:00:35.724Z,658.00
2024-01-24T12:01:35.731Z,661.00
2024-01-24T12:02:35.644Z,665.00
2024-01-24T12:03:35.669Z,664.00
2024-01-24T12:04:35.693Z,666.00
2024-01-24T12:05:35.664Z,666.00
2024-01-24T12:06:35.727Z,665.00
2024-01-24T12:07:35.726Z,668.00
2024-01-24T12:08:35.626Z,665.00
2024-01-24T12:09:35.702Z,663.00
2024-01-24T12:10:35.655Z,666.00
2024-01-24T12:11:35.680Z,668.00
2024-01-24T12:12:35.637Z,665.00
2024-01-24T12:13:35.673Z,664.00
2024-01-24T12:14:35.670Z,660.00
2024-01-24T12:15:35.736Z,658.00
2024-01-24T12:16:35.723Z,656.00
2024-01-24T12:17:35.830Z,657.00
2024-01-24T12:18:35.967Z,659.00
2024-01-24T12:19:35.837Z,661.00
2024-01-24T12:20:35.826Z,661.00
2024-01-24T12:21:35.816Z,664.00
2024-01-24T12:22:35.769Z,666.00
2024-01-24T12:23:35.785Z,664.00
2024-01-24T12:24:35.783Z,664.00
2024-01-24T12:25:35.789Z,663.00
2024-01-24T12:26:35.888Z,663.00
2024-01-24T12:27:36.832Z,662.00
2024-01-24T12:28:35.820Z,662.00
2024-01-24T12:29:35.834Z,666.00